createdAt,value
2023-03-31T00:03:34.282Z,7.70
2023-03-31T00:08:36.801Z,7.22
2023-03-31T00:13:39.577Z,8.02
2023-03-31T00:18:47.801Z,7.55
2023-03-31T00:23:54.091Z,6.70
2023-03-31T00:28:57.420Z,6.93
2023-03-31T00:33:59.924Z,7.22
2023-03-31T00:39:08.352Z,6.82
2023-03-31T00:49:27.868Z,7.00
2023-03-31T00:54:33.939Z,7.28
2023-03-31T00:59:42.573Z,7.45
2023-03-31T01:04:51.009Z,7.05
2023-03-31T01:09:57.210Z,8.40
2023-03-31T01:15:01.686Z,7.35
2023-03-31T01:25:46.045Z,7.40
2023-03-31T01:46:35.541Z,6.60
2023-03-31T01:56:58.279Z,7.68
2023-03-31T02:07:22.368Z,7.05
2023-03-31T02:12:28.439Z,6.20
2023-03-31T02:17:32.871Z,7.18
2023-03-31T02:22:39.407Z,6.32
2023-03-31T02:27:46.989Z,7.00
2023-03-31T02:32:49.518Z,7.07
2023-03-31T02:37:52.563Z,7.05
2023-03-31T02:42:54.930Z,7.40
2023-03-31T02:47:58.017Z,7.60
2023-03-31T02:53:23.552Z,7.32
2023-03-31T03:19:21.068Z,7.13
2023-03-31T03:24:23.379Z,9.32
2023-03-31T03:29:27.226Z,6.85
2023-03-31T03:34:29.689Z,7.03
2023-03-31T03:39:32.846Z,7.30
2023-03-31T03:44:35.064Z,7.55
2023-03-31T03:49:37.341Z,7.32
2023-03-31T03:54:39.530Z,6.80
2023-03-31T03:59:41.820Z,8.52
2023-03-31T04:04:44.130Z,8.63
2023-03-31T04:09:46.399Z,8.55
2023-03-31T04:14:48.808Z,7.20
2023-03-31T04:19:53.031Z,7.82
2023-03-31T04:24:58.734Z,7.72
2023-03-31T04:30:01.139Z,10.75
2023-03-31T04:35:03.527Z,14.82
2023-03-31T04:40:08.190Z,9.25
2023-03-31T04:45:11.967Z,8.43
2023-03-31T04:50:16.908Z,16.27
2023-03-31T04:55:19.484Z,8.48
2023-03-31T05:00:22.279Z,13.23
2023-03-31T05:05:24.650Z,8.25
2023-03-31T05:10:26.997Z,13.02
2023-03-31T05:15:29.405Z,13.15
2023-03-31T05:20:31.677Z,15.07
2023-03-31T05:25:34.176Z,12.45
2023-03-31T05:30:36.495Z,18.42
2023-03-31T05:35:38.755Z,15.57
2023-03-31T05:40:40.977Z,12.45
2023-03-31T05:45:43.255Z,14.00
2023-03-31T05:50:45.962Z,12.93
2023-03-31T05:55:48.271Z,13.02
2023-03-31T06:00:54.030Z,13.23
2023-03-31T06:05:56.717Z,13.68
2023-03-31T06:10:59.061Z,18.80
2023-03-31T06:16:02.028Z,13.35
2023-03-31T06:21:05.790Z,13.75
2023-03-31T06:26:08.957Z,12.57
2023-03-31T06:31:14.667Z,17.90
2023-03-31T06:36:18.902Z,15.95
2023-03-31T06:41:22.554Z,16.95
2023-03-31T06:46:24.917Z,24.08
2023-03-31T06:51:27.177Z,15.02
2023-03-31T06:56:29.522Z,16.33
2023-03-31T07:01:31.918Z,16.27
2023-03-31T07:06:35.137Z,14.52
2023-03-31T07:11:37.395Z,15.40
2023-03-31T07:16:39.663Z,16.70
2023-03-31T07:21:42.161Z,13.82
2023-03-31T07:26:44.399Z,14.68
2023-03-31T07:31:48.090Z,11.90
2023-03-31T07:36:51.441Z,12.80
2023-03-31T07:41:53.762Z,11.23
2023-03-31T07:46:56.010Z,13.35
2023-03-31T07:51:58.360Z,14.32
2023-03-31T07:57:03.378Z,16.20
2023-03-31T08:02:05.808Z,16.30
2023-03-31T08:07:10.790Z,17.33
2023-03-31T08:12:14.284Z,17.88
2023-03-31T08:17:16.540Z,18.77
2023-03-31T08:22:18.842Z,17.60
2023-03-31T08:27:21.256Z,18.33
2023-03-31T08:32:24.469Z,20.38
2023-03-31T08:37:28.715Z,20.33
2023-03-31T08:47:42.264Z,22.45
2023-03-31T08:53:06.730Z,25.48
2023-03-31T09:03:29.958Z,28.98
2023-03-31T09:08:36.280Z,29.30
2023-03-31T09:14:17.396Z,27.42
2023-03-31T09:30:05.767Z,28.08
2023-03-31T09:35:18.942Z,25.23
2023-03-31T09:40:25.531Z,26.10
2023-03-31T09:45:28.600Z,27.42
2023-03-31T09:50:33.261Z,26.15
2023-03-31T10:01:06.379Z,28.00
2023-03-31T10:06:11.456Z,24.95
2023-03-31T10:11:13.959Z,26.17
2023-03-31T10:21:39.609Z,29.02
2023-03-31T10:26:42.011Z,23.98
2023-03-31T10:31:44.306Z,27.85
2023-03-31T10:36:48.914Z,27.95
2023-03-31T10:41:52.901Z,21.25
2023-03-31T10:46:55.450Z,20.40
2023-03-31T10:52:01.132Z,20.67
2023-03-31T10:57:06.360Z,20.80
2023-03-31T11:12:52.589Z,18.13
2023-03-31T12:04:43.132Z,15.75
2023-03-31T12:10:05.725Z,15.02
2023-03-31T12:20:37.977Z,16.08
2023-03-31T12:31:02.016Z,15.77
2023-03-31T12:52:27.978Z,15.18
2023-03-31T12:57:30.416Z,13.73
2023-03-31T13:02:32.876Z,14.27
2023-03-31T13:23:26.116Z,15.18
2023-03-31T13:49:53.988Z,17.75
2023-03-31T21:04:09.110Z,17.45
2023-03-31T21:09:15.920Z,15.05
2023-03-31T21:14:18.237Z,15.98
2023-03-31T21:19:20.518Z,16.95
2023-03-31T21:24:22.879Z,21.20
2023-03-31T21:29:25.136Z,17.83
2023-03-31T21:34:27.448Z,17.90
2023-03-31T21:39:29.716Z,17.48
2023-03-31T21:44:31.971Z,16.05
2023-03-31T21:49:34.212Z,14.40
2023-03-31T21:54:36.692Z,16.17
2023-03-31T21:59:38.990Z,15.82
2023-03-31T22:04:41.564Z,16.10
2023-03-31T22:09:43.766Z,14.98
2023-03-31T22:14:46.120Z,16.85
2023-03-31T22:19:48.357Z,15.48
2023-03-31T22:24:50.601Z,14.38
2023-03-31T22:29:52.820Z,14.93
2023-03-31T22:34:55.137Z,14.43
2023-03-31T22:39:57.489Z,14.18
2023-03-31T22:45:00.484Z,14.65
2023-03-31T22:50:02.836Z,14.38
2023-03-31T22:55:06.367Z,14.90
2023-03-31T23:00:09.309Z,14.45
2023-03-31T23:05:11.606Z,14.45
2023-03-31T23:10:13.862Z,13.10
2023-03-31T23:15:16.310Z,12.63
2023-03-31T23:20:18.649Z,11.40
2023-03-31T23:25:20.844Z,11.45
2023-03-31T23:30:23.062Z,11.05
